createdAt,value
2022-08-04T00:00:18.498Z,88.80
2022-08-04T00:02:48.509Z,89.10
2022-08-04T00:05:24.024Z,89.20
2022-08-04T00:07:51.008Z,89.30
2022-08-04T00:10:18.919Z,89.40
2022-08-04T00:12:47.879Z,89.40
2022-08-04T00:15:16.676Z,89.20
2022-08-04T00:18:07.314Z,89.20
2022-08-04T00:20:34.949Z,88.50
2022-08-04T00:23:02.409Z,87.90
2022-08-04T00:25:29.441Z,88.30
2022-08-04T00:27:56.503Z,88.00
2022-08-04T00:30:24.328Z,87.60
2022-08-04T00:32:51.511Z,87.60
2022-08-04T00:35:18.758Z,87.40
2022-08-04T00:37:46.046Z,87.40
2022-08-04T00:40:18.903Z,87.50
2022-08-04T00:42:59.759Z,87.40
2022-08-04T00:46:16.263Z,86.90
2022-08-04T00:48:51.583Z,86.90
2022-08-04T00:51:36.027Z,87.30
2022-08-04T00:54:21.289Z,87.40
2022-08-04T00:56:57.519Z,87.50
2022-08-04T00:59:33.729Z,87.50
2022-08-04T01:02:07.953Z,87.80
2022-08-04T01:04:38.142Z,87.90
2022-08-04T01:07:18.110Z,87.80
2022-08-04T01:10:03.914Z,88.00
2022-08-04T01:12:37.030Z,87.90
2022-08-04T01:15:06.388Z,87.90
2022-08-04T01:17:36.196Z,87.80
2022-08-04T01:20:15.665Z,88.20
2022-08-04T01:23:01.054Z,88.20
2022-08-04T01:25:39.138Z,88.30
2022-08-04T01:28:25.612Z,88.30
2022-08-04T01:30:55.412Z,88.50
2022-08-04T01:33:22.829Z,88.50
2022-08-04T01:35:56.774Z,88.50
2022-08-04T01:38:23.872Z,88.60
2022-08-04T01:40:55.502Z,88.70
2022-08-04T01:43:23.685Z,90.00
2022-08-04T01:45:52.590Z,89.20
2022-08-04T01:48:24.878Z,89.30
2022-08-04T01:50:58.182Z,89.30
2022-08-04T01:53:32.434Z,89.50
2022-08-04T01:56:00.894Z,89.70
2022-08-04T01:58:29.515Z,89.90
2022-08-04T02:01:04.877Z,90.00
2022-08-04T02:04:20.593Z,90.10
2022-08-04T02:06:24.561Z,90.20
2022-08-04T02:09:00.992Z,90.00
2022-08-04T02:11:30.348Z,90.10
2022-08-04T02:14:06.587Z,90.10
2022-08-04T02:16:36.672Z,90.20
2022-08-04T02:19:16.070Z,90.30
2022-08-04T02:21:46.670Z,90.40
2022-08-04T02:24:15.108Z,90.40
2022-08-04T02:26:43.221Z,90.50
2022-08-04T02:29:16.422Z,90.50
2022-08-04T02:31:47.625Z,90.70
2022-08-04T02:34:23.462Z,90.90
2022-08-04T02:36:51.900Z,91.00
2022-08-04T02:39:22.844Z,91.00
2022-08-04T02:41:50.404Z,91.10
2022-08-04T02:44:22.419Z,91.20
2022-08-04T02:46:52.423Z,91.30
2022-08-04T02:49:19.723Z,91.50
2022-08-04T02:51:49.190Z,91.60
2022-08-04T02:54:22.361Z,91.80
2022-08-04T02:57:00.487Z,91.90
2022-08-04T02:59:28.331Z,92.10
2022-08-04T03:01:57.942Z,92.30
2022-08-04T03:04:50.132Z,92.50
2022-08-04T03:07:36.377Z,92.60
2022-08-04T03:10:18.889Z,92.70
2022-08-04T03:12:51.670Z,92.80
2022-08-04T03:15:44.805Z,92.80
2022-08-04T03:18:23.770Z,92.80
2022-08-04T03:21:05.613Z,92.70
2022-08-04T03:23:38.901Z,92.70
2022-08-04T03:26:24.410Z,92.80
2022-08-04T03:28:51.395Z,92.70
2022-08-04T03:31:36.488Z,92.60
2022-08-04T03:34:17.202Z,92.80
2022-08-04T03:37:02.915Z,92.80
2022-08-04T03:39:32.953Z,92.80
2022-08-04T03:42:12.048Z,92.70
2022-08-04T03:44:41.355Z,92.80
2022-08-04T03:47:20.784Z,92.70
2022-08-04T03:49:51.139Z,92.60
2022-08-04T03:52:53.245Z,92.50
2022-08-04T03:55:23.126Z,92.30
2022-08-04T03:57:52.994Z,92.30
2022-08-04T04:00:21.603Z,92.10
2022-08-04T04:02:48.701Z,91.90
2022-08-04T04:05:15.807Z,91.80
2022-08-04T04:07:59.867Z,91.90
2022-08-04T04:10:28.880Z,91.70
2022-08-04T04:12:58.836Z,91.50
2022-08-04T04:15:30.041Z,91.40
2022-08-04T04:18:03.197Z,91.60
2022-08-04T04:20:48.448Z,91.20
2022-08-04T04:23:15.431Z,91.30
2022-08-04T04:26:03.318Z,91.30
2022-08-04T04:28:46.088Z,91.20
2022-08-04T04:31:22.860Z,91.10
2022-08-04T04:34:06.024Z,91.20
2022-08-04T04:36:35.965Z,91.30
2022-08-04T04:39:09.385Z,91.40
2022-08-04T04:42:02.145Z,91.50
2022-08-04T04:44:35.177Z,91.30
2022-08-04T04:47:21.147Z,91.30
2022-08-04T04:50:11.314Z,91.30
2022-08-04T04:52:41.534Z,91.30
2022-08-04T04:55:21.159Z,91.20
2022-08-04T04:57:54.386Z,91.40
2022-08-04T05:00:25.058Z,91.30
2022-08-04T05:03:01.732Z,91.30
2022-08-04T05:05:36.175Z,91.40
2022-08-04T05:08:43.962Z,91.40
2022-08-04T05:11:21.991Z,91.40
2022-08-04T05:14:36.654Z,91.40
2022-08-04T05:16:44.851Z,91.50
2022-08-04T05:19:15.116Z,91.50
2022-08-04T05:21:58.255Z,91.50
2022-08-04T05:24:26.102Z,91.40
2022-08-04T05:26:55.203Z,91.50
2022-08-04T05:29:42.398Z,91.40
2022-08-04T05:32:12.836Z,91.30
2022-08-04T05:34:42.360Z,91.30
2022-08-04T05:37:10.976Z,91.20
2022-08-04T05:39:42.451Z,91.30
2022-08-04T05:42:14.845Z,91.30
2022-08-04T05:44:46.383Z,91.40
2022-08-04T05:47:16.668Z,91.40
2022-08-04T05:49:44.666Z,91.40
2022-08-04T05:52:12.609Z,91.30
2022-08-04T05:54:40.843Z,91.20
2022-08-04T05:57:08.757Z,91.30
2022-08-04T05:59:37.812Z,91.00
2022-08-04T06:02:05.322Z,91.40
2022-08-04T06:04:34.956Z,91.00
2022-08-04T06:07:02.177Z,91.00
2022-08-04T06:09:30.124Z,91.10
2022-08-04T06:12:03.232Z,91.00
2022-08-04T06:14:33.338Z,91.00
2022-08-04T06:17:01.968Z,90.90
2022-08-04T06:20:00.314Z,90.70
2022-08-04T06:22:18.494Z,90.80
2022-08-04T06:24:48.298Z,90.90
2022-08-04T06:27:15.907Z,90.70
2022-08-04T06:29:51.250Z,90.80
2022-08-04T06:32:33.645Z,90.80
2022-08-04T06:35:07.287Z,90.40
2022-08-04T06:37:42.058Z,90.50
2022-08-04T06:40:29.835Z,90.90
2022-08-04T06:42:58.659Z,91.00
2022-08-04T06:45:26.128Z,91.00
2022-08-04T06:47:54.152Z,90.80
2022-08-04T06:51:24.364Z,91.00
2022-08-04T06:53:09.097Z,90.90
2022-08-04T06:55:36.249Z,91.10
2022-08-04T06:58:03.793Z,91.00
2022-08-04T07:00:32.232Z,91.10
2022-08-04T07:02:59.710Z,91.00
2022-08-04T07:05:29.212Z,91.00
2022-08-04T07:08:00.289Z,90.90
2022-08-04T07:10:28.237Z,90.60
2022-08-04T07:12:56.685Z,90.10
2022-08-04T07:15:25.487Z,90.10
2022-08-04T07:17:53.624Z,90.10
2022-08-04T07:20:34.741Z,89.80
2022-08-04T07:23:06.386Z,88.90
2022-08-04T07:25:59.509Z,87.80
2022-08-04T07:28:21.892Z,87.10
2022-08-04T07:30:49.380Z,85.50
2022-08-04T07:33:17.197Z,84.60
2022-08-04T07:36:10.462Z,83.70
2022-08-04T07:38:33.108Z,83.20
2022-08-04T07:41:00.521Z,82.20
2022-08-04T07:43:27.873Z,83.20
2022-08-04T07:45:54.907Z,83.20
2022-08-04T07:48:24.478Z,83.90
2022-08-04T07:50:51.893Z,84.30
2022-08-04T07:53:54.544Z,84.60
2022-08-04T07:56:06.676Z,84.60
2022-08-04T07:58:33.935Z,85.30
2022-08-04T08:01:01.372Z,86.30
2022-08-04T08:03:28.490Z,86.30
2022-08-04T08:06:17.581Z,86.80
2022-08-04T08:08:42.686Z,86.80
2022-08-04T08:11:11.087Z,87.50
2022-08-04T08:13:38.610Z,87.90
2022-08-04T08:16:06.123Z,87.20
2022-08-04T08:18:33.094Z,86.90
2022-08-04T08:21:00.241Z,85.60
2022-08-04T08:23:30.514Z,84.30
2022-08-04T08:25:58.267Z,82.70
2022-08-04T08:28:25.497Z,81.80
2022-08-04T08:30:52.792Z,81.20
2022-08-04T08:33:20.757Z,80.80
2022-08-04T08:35:53.055Z,79.40
2022-08-04T08:38:23.426Z,79.30
2022-08-04T08:40:55.993Z,80.20
2022-08-04T08:44:05.404Z,82.00
2022-08-04T08:46:13.025Z,83.40
2022-08-04T08:48:43.133Z,84.20
2022-08-04T08:51:10.065Z,84.50
2022-08-04T08:53:40.401Z,85.50
2022-08-04T08:56:10.456Z,85.70
2022-08-04T08:58:56.286Z,85.50
2022-08-04T09:01:42.511Z,85.80
2022-08-04T09:04:31.943Z,85.40
2022-08-04T09:07:18.248Z,86.20
2022-08-04T09:09:51.356Z,86.20
2022-08-04T09:12:20.070Z,86.80
2022-08-04T09:15:00.882Z,87.20
2022-08-04T09:17:30.510Z,87.90
2022-08-04T09:20:04.213Z,87.40
2022-08-04T09:23:01.287Z,87.10
2022-08-04T09:25:34.759Z,87.10
2022-08-04T09:28:43.779Z,86.70
2022-08-04T09:31:17.056Z,86.90
2022-08-04T09:34:13.443Z,86.60
2022-08-04T09:36:59.087Z,86.30
2022-08-04T09:39:44.663Z,85.50
2022-08-04T09:42:26.061Z,85.40
2022-08-04T09:45:21.281Z,85.40
2022-08-04T09:47:57.481Z,85.40
2022-08-04T09:50:29.752Z,83.90
2022-08-04T09:52:56.881Z,81.60
2022-08-04T09:55:26.960Z,80.00
2022-08-04T18:02:32.227Z,72.30
2022-08-04T18:05:06.247Z,73.20
2022-08-04T18:08:34.519Z,73.40
2022-08-04T18:10:39.763Z,73.60
2022-08-04T18:13:22.080Z,74.20
2022-08-04T18:15:51.353Z,74.70
2022-08-04T18:18:21.329Z,74.90
2022-08-04T18:20:50.302Z,75.10
2022-08-04T18:23:17.364Z,75.40
2022-08-04T18:25:51.059Z,75.40
2022-08-04T18:28:26.685Z,75.60
2022-08-04T18:30:55.684Z,76.00
2022-08-04T18:33:37.537Z,76.00
2022-08-04T18:36:37.026Z,75.90
2022-08-04T18:38:58.165Z,76.00
2022-08-04T18:41:29.107Z,76.20
2022-08-04T18:44:16.136Z,77.20
2022-08-04T18:46:52.623Z,76.60
2022-08-04T18:50:31.962Z,77.00
2022-08-04T18:52:15.118Z,77.10
2022-08-04T18:54:43.276Z,77.50
2022-08-04T18:57:32.557Z,77.70
2022-08-04T18:59:57.478Z,78.10
2022-08-04T19:02:27.586Z,78.50
2022-08-04T19:04:54.728Z,78.90
2022-08-04T19:07:24.503Z,79.00
2022-08-04T19:10:09.187Z,79.40
2022-08-04T19:12:53.704Z,79.60
2022-08-04T19:15:21.085Z,80.00
2022-08-04T19:18:02.382Z,80.20
2022-08-04T19:20:34.387Z,80.30
2022-08-04T19:24:30.141Z,80.60
2022-08-04T19:28:35.064Z,80.70
2022-08-04T19:31:03.992Z,81.40
2022-08-04T19:33:58.710Z,81.80
2022-08-04T19:36:18.212Z,81.90
2022-08-04T19:38:45.502Z,82.20
2022-08-04T19:41:14.342Z,82.20
2022-08-04T19:43:43.799Z,82.30
2022-08-04T19:46:12.201Z,82.20
2022-08-04T19:48:40.167Z,82.60
2022-08-04T19:53:37.358Z,82.60
2022-08-04T19:56:05.166Z,83.70
2022-08-04T19:58:32.117Z,83.80
2022-08-04T20:00:59.352Z,83.90
2022-08-04T20:04:08.048Z,84.30
2022-08-04T20:06:13.390Z,84.20
2022-08-04T20:08:48.660Z,84.80
2022-08-04T20:11:16.557Z,85.00
2022-08-04T20:13:45.449Z,85.40
2022-08-04T20:16:30.416Z,85.50
2022-08-04T20:21:53.469Z,85.60
2022-08-04T20:24:41.703Z,86.20
2022-08-04T20:29:39.038Z,85.80
2022-08-04T20:32:08.579Z,86.00
2022-08-04T20:34:36.103Z,86.00
2022-08-04T20:37:03.845Z,85.90
2022-08-04T20:39:31.126Z,86.00
2022-08-04T20:41:58.632Z,85.80
2022-08-04T20:44:25.927Z,85.60
2022-08-04T20:46:53.362Z,85.60
2022-08-04T20:49:20.370Z,85.60
2022-08-04T20:51:50.282Z,85.70
2022-08-04T20:54:26.393Z,85.70
2022-08-04T20:56:54.115Z,85.70
2022-08-04T20:59:22.223Z,86.00
2022-08-04T21:01:53.500Z,86.10
2022-08-04T21:04:35.742Z,86.10
2022-08-04T21:07:05.782Z,86.10
2022-08-04T21:12:05.851Z,85.70
2022-08-04T21:14:32.935Z,86.20
2022-08-04T21:17:00.369Z,87.30
2022-08-04T21:21:55.107Z,86.10
2022-08-04T21:24:25.893Z,86.80
2022-08-04T21:26:56.779Z,87.10
2022-08-04T21:29:34.905Z,87.00
2022-08-04T21:32:05.690Z,86.60
2022-08-04T21:34:39.509Z,85.60
2022-08-04T21:39:59.381Z,86.60
2022-08-04T21:42:29.705Z,87.00
2022-08-04T21:45:09.851Z,86.90
2022-08-04T21:47:46.369Z,86.60
2022-08-04T21:50:20.053Z,86.60
2022-08-04T21:52:48.156Z,86.80
2022-08-04T21:55:16.054Z,86.60
2022-08-04T21:57:43.031Z,86.30
2022-08-04T22:00:10.818Z,86.30
2022-08-04T22:02:45.953Z,86.30
2022-08-04T22:05:15.761Z,86.40
2022-08-04T22:10:32.382Z,86.80
2022-08-04T22:13:06.912Z,86.40
2022-08-04T22:16:04.496Z,86.60
2022-08-04T22:18:24.567Z,86.40
2022-08-04T22:20:55.045Z,86.80
2022-08-04T22:23:25.288Z,87.00
2022-08-04T22:25:53.754Z,86.90
2022-08-04T22:28:24.594Z,87.00
2022-08-04T22:30:55.946Z,87.00
2022-08-04T22:33:23.175Z,87.20
2022-08-04T22:35:50.253Z,86.40
2022-08-04T22:40:56.505Z,85.60
2022-08-04T22:43:33.443Z,86.90
2022-08-04T22:46:07.334Z,86.50
2022-08-04T22:48:39.025Z,86.80
2022-08-04T22:51:07.417Z,86.50
2022-08-04T22:53:35.344Z,86.20
2022-08-04T22:56:09.351Z,85.90
2022-08-04T22:58:45.376Z,84.90
2022-08-04T23:01:18.355Z,85.00
2022-08-04T23:03:50.913Z,85.20
2022-08-04T23:06:24.448Z,85.80
2022-08-04T23:08:51.930Z,86.20
2022-08-04T23:11:18.953Z,86.70
2022-08-04T23:13:47.214Z,87.10
2022-08-04T23:16:15.960Z,87.00
2022-08-04T23:18:48.162Z,87.10
2022-08-04T23:21:16.042Z,87.10
2022-08-04T23:23:45.611Z,86.80
2022-08-04T23:26:27.792Z,87.00
2022-08-04T23:28:56.223Z,87.10
2022-08-04T23:31:23.719Z,86.90
2022-08-04T23:33:52.113Z,86.70
2022-08-04T23:36:29.790Z,86.80
2022-08-04T23:39:03.997Z,86.20
2022-08-04T23:44:24.652Z,85.60
2022-08-04T23:47:03.365Z,85.70
2022-08-04T23:49:43.580Z,85.80
2022-08-04T23:52:27.431Z,85.80
2022-08-04T23:54:59.948Z,85.60
2022-08-04T23:57:31.495Z,85.20
